sensor_id;sensor_type;location;lat;lon;timestamp;temperature;humidity
67101;DHT22;54019;61.746;16.106;2022-08-14T00:00:46;23.20;45.60
67101;DHT22;54019;61.746;16.106;2022-08-14T00:03:32;23.10;45.60
67101;DHT22;54019;61.746;16.106;2022-08-14T00:06:19;23.10;45.60
67101;DHT22;54019;61.746;16.106;2022-08-14T00:09:05;23.10;45.80
67101;DHT22;54019;61.746;16.106;2022-08-14T00:11:52;23.10;45.80
67101;DHT22;54019;61.746;16.106;2022-08-14T00:14:39;23.10;45.90
67101;DHT22;54019;61.746;16.106;2022-08-14T00:17:25;23.00;45.70
67101;DHT22;54019;61.746;16.106;2022-08-14T00:20:11;23.00;45.80
67101;DHT22;54019;61.746;16.106;2022-08-14T00:22:58;23.00;45.80
67101;DHT22;54019;61.746;16.106;2022-08-14T00:25:47;23.00;45.80
67101;DHT22;54019;61.746;16.106;2022-08-14T00:28:35;22.90;46.10
67101;DHT22;54019;61.746;16.106;2022-08-14T00:31:22;23.00;46.10
67101;DHT22;54019;61.746;16.106;2022-08-14T00:34:08;23.00;46.10
67101;DHT22;54019;61.746;16.106;2022-08-14T00:36:54;23.00;46.00
67101;DHT22;54019;61.746;16.106;2022-08-14T00:39:41;23.00;46.10
67101;DHT22;54019;61.746;16.106;2022-08-14T00:42:27;23.10;46.10
67101;DHT22;54019;61.746;16.106;2022-08-14T00:45:16;23.10;46.10
67101;DHT22;54019;61.746;16.106;2022-08-14T00:48:03;23.10;46.10
67101;DHT22;54019;61.746;16.106;2022-08-14T00:50:49;23.10;46.10
67101;DHT22;54019;61.746;16.106;2022-08-14T00:53:36;23.10;46.20
67101;DHT22;54019;61.746;16.106;2022-08-14T00:56:24;23.10;46.30
67101;DHT22;54019;61.746;16.106;2022-08-14T00:59:10;23.10;46.30
67101;DHT22;54019;61.746;16.106;2022-08-14T01:01:59;23.20;46.40
67101;DHT22;54019;61.746;16.106;2022-08-14T01:04:45;23.20;46.40
67101;DHT22;54019;61.746;16.106;2022-08-14T01:07:32;23.20;46.50
67101;DHT22;54019;61.746;16.106;2022-08-14T01:10:19;23.20;46.50
67101;DHT22;54019;61.746;16.106;2022-08-14T01:13:05;23.20;46.60
67101;DHT22;54019;61.746;16.106;2022-08-14T01:15:55;23.20;46.50
67101;DHT22;54019;61.746;16.106;2022-08-14T01:18:43;23.20;46.50
67101;DHT22;54019;61.746;16.106;2022-08-14T01:21:32;23.20;46.50
67101;DHT22;54019;61.746;16.106;2022-08-14T01:24:19;23.30;46.60
67101;DHT22;54019;61.746;16.106;2022-08-14T01:27:05;23.30;46.60
67101;DHT22;54019;61.746;16.106;2022-08-14T01:29:54;23.30;46.60
67101;DHT22;54019;61.746;16.106;2022-08-14T01:32:41;23.30;46.60
67101;DHT22;54019;61.746;16.106;2022-08-14T01:35:27;23.30;46.60
67101;DHT22;54019;61.746;16.106;2022-08-14T01:38:15;23.30;46.60
67101;DHT22;54019;61.746;16.106;2022-08-14T01:41:01;23.30;46.60
67101;DHT22;54019;61.746;16.106;2022-08-14T01:43:49;23.30;46.50
67101;DHT22;54019;61.746;16.106;2022-08-14T01:46:37;23.30;46.60
67101;DHT22;54019;61.746;16.106;2022-08-14T01:49:24;23.40;46.60
67101;DHT22;54019;61.746;16.106;2022-08-14T01:52:10;23.40;46.60
67101;DHT22;54019;61.746;16.106;2022-08-14T01:54:58;23.40;46.50
67101;DHT22;54019;61.746;16.106;2022-08-14T01:57:45;23.40;46.60
67101;DHT22;54019;61.746;16.106;2022-08-14T02:00:31;23.40;46.70
67101;DHT22;54019;61.746;16.106;2022-08-14T02:03:17;23.40;46.60
67101;DHT22;54019;61.746;16.106;2022-08-14T02:06:03;23.40;46.60
67101;DHT22;54019;61.746;16.106;2022-08-14T02:08:50;23.50;46.70
67101;DHT22;54019;61.746;16.106;2022-08-14T02:11:38;23.40;46.60
67101;DHT22;54019;61.746;16.106;2022-08-14T02:14:24;23.50;46.50
67101;DHT22;54019;61.746;16.106;2022-08-14T02:17:13;23.50;46.70
67101;DHT22;54019;61.746;16.106;2022-08-14T02:20:00;23.50;46.30
67101;DHT22;54019;61.746;16.106;2022-08-14T02:22:48;23.50;46.30
67101;DHT22;54019;61.746;16.106;2022-08-14T02:25:35;23.50;46.30
67101;DHT22;54019;61.746;16.106;2022-08-14T02:28:22;23.40;46.20
67101;DHT22;54019;61.746;16.106;2022-08-14T02:31:08;23.50;46.30
67101;DHT22;54019;61.746;16.106;2022-08-14T02:33:54;23.50;46.30
67101;DHT22;54019;61.746;16.106;2022-08-14T02:36:41;23.50;46.20
67101;DHT22;54019;61.746;16.106;2022-08-14T02:39:28;23.40;46.10
67101;DHT22;54019;61.746;16.106;2022-08-14T02:42:17;23.50;46.20
67101;DHT22;54019;61.746;16.106;2022-08-14T02:45:06;23.50;46.10
67101;DHT22;54019;61.746;16.106;2022-08-14T02:47:52;23.50;46.10
67101;DHT22;54019;61.746;16.106;2022-08-14T06:00:52;23.80;48.00
67101;DHT22;54019;61.746;16.106;2022-08-14T06:03:38;23.80;47.80
67101;DHT22;54019;61.746;16.106;2022-08-14T06:06:24;23.80;47.90
67101;DHT22;54019;61.746;16.106;2022-08-14T06:09:10;23.80;48.30
67101;DHT22;54019;61.746;16.106;2022-08-14T06:11:56;23.80;48.30
67101;DHT22;54019;61.746;16.106;2022-08-14T06:14:43;23.80;48.30
67101;DHT22;54019;61.746;16.106;2022-08-14T06:17:30;23.80;48.50
67101;DHT22;54019;61.746;16.106;2022-08-14T06:20:17;23.80;48.50
67101;DHT22;54019;61.746;16.106;2022-08-14T06:23:04;23.80;48.70
67101;DHT22;54019;61.746;16.106;2022-08-14T06:25:50;23.80;48.90
67101;DHT22;54019;61.746;16.106;2022-08-14T06:28:36;23.80;49.00
67101;DHT22;54019;61.746;16.106;2022-08-14T06:31:22;23.80;49.00
67101;DHT22;54019;61.746;16.106;2022-08-14T06:34:10;23.80;49.10
67101;DHT22;54019;61.746;16.106;2022-08-14T06:36:56;23.80;49.10
67101;DHT22;54019;61.746;16.106;2022-08-14T06:39:42;23.80;49.20
67101;DHT22;54019;61.746;16.106;2022-08-14T06:42:28;23.80;49.20
67101;DHT22;54019;61.746;16.106;2022-08-14T06:45:15;23.80;49.50
67101;DHT22;54019;61.746;16.106;2022-08-14T06:48:02;23.80;49.50
67101;DHT22;54019;61.746;16.106;2022-08-14T06:50:51;23.80;49.70
67101;DHT22;54019;61.746;16.106;2022-08-14T06:53:38;23.80;49.80
67101;DHT22;54019;61.746;16.106;2022-08-14T06:56:24;23.80;49.60
67101;DHT22;54019;61.746;16.106;2022-08-14T06:59:13;23.70;50.30
67101;DHT22;54019;61.746;16.106;2022-08-14T07:01:59;23.70;51.10
67101;DHT22;54019;61.746;16.106;2022-08-14T07:04:45;23.60;51.20
67101;DHT22;54019;61.746;16.106;2022-08-14T07:07:36;23.50;51.40
67101;DHT22;54019;61.746;16.106;2022-08-14T07:10:22;23.50;51.20
67101;DHT22;54019;61.746;16.106;2022-08-14T07:13:09;23.50;51.00
67101;DHT22;54019;61.746;16.106;2022-08-14T07:15:57;23.50;50.90
67101;DHT22;54019;61.746;16.106;2022-08-14T07:18:43;23.50;50.90
67101;DHT22;54019;61.746;16.106;2022-08-14T07:21:29;23.50;51.50
67101;DHT22;54019;61.746;16.106;2022-08-14T07:24:17;23.50;51.10
67101;DHT22;54019;61.746;16.106;2022-08-14T07:27:03;23.50;51.10
67101;DHT22;54019;61.746;16.106;2022-08-14T07:29:50;23.50;50.80
67101;DHT22;54019;61.746;16.106;2022-08-14T07:32:36;23.60;50.80
67101;DHT22;54019;61.746;16.106;2022-08-14T07:35:22;23.60;50.60
67101;DHT22;54019;61.746;16.106;2022-08-14T07:38:16;23.60;50.70
67101;DHT22;54019;61.746;16.106;2022-08-14T07:41:04;23.60;50.90
67101;DHT22;54019;61.746;16.106;2022-08-14T07:43:50;23.60;50.70
67101;DHT22;54019;61.746;16.106;2022-08-14T07:46:36;23.60;50.90
67101;DHT22;54019;61.746;16.106;2022-08-14T07:49:23;23.60;51.00
67101;DHT22;54019;61.746;16.106;2022-08-14T07:52:09;23.60;51.10
67101;DHT22;54019;61.746;16.106;2022-08-14T07:54:55;23.60;51.10
67101;DHT22;54019;61.746;16.106;2022-08-14T07:57:45;23.60;51.30
67101;DHT22;54019;61.746;16.106;2022-08-14T08:00:31;23.60;50.80
67101;DHT22;54019;61.746;16.106;2022-08-14T08:03:18;23.60;50.70
67101;DHT22;54019;61.746;16.106;2022-08-14T08:06:04;23.60;50.60
67101;DHT22;54019;61.746;16.106;2022-08-14T08:08:52;23.60;50.60
67101;DHT22;54019;61.746;16.106;2022-08-14T08:11:40;23.70;50.80
67101;DHT22;54019;61.746;16.106;2022-08-14T08:14:28;23.70;50.80
67101;DHT22;54019;61.746;16.106;2022-08-14T08:17:14;23.70;50.80
67101;DHT22;54019;61.746;16.106;2022-08-14T08:20:01;23.70;51.10
67101;DHT22;54019;61.746;16.106;2022-08-14T08:22:48;23.70;51.10
67101;DHT22;54019;61.746;16.106;2022-08-14T08:25:36;23.70;50.90
67101;DHT22;54019;61.746;16.106;2022-08-14T08:28:24;23.70;51.20
67101;DHT22;54019;61.746;16.106;2022-08-14T08:31:11;23.70;51.80
67101;DHT22;54019;61.746;16.106;2022-08-14T08:33:58;23.60;52.10
67101;DHT22;54019;61.746;16.106;2022-08-14T08:36:44;23.60;51.90
67101;DHT22;54019;61.746;16.106;2022-08-14T08:39:30;23.60;52.10
67101;DHT22;54019;61.746;16.106;2022-08-14T08:42:26;23.60;52.20
67101;DHT22;54019;61.746;16.106;2022-08-14T08:45:14;23.60;52.70
67101;DHT22;54019;61.746;16.106;2022-08-14T08:48:03;23.60;52.30
67101;DHT22;54019;61.746;16.106;2022-08-14T08:50:49;23.60;52.10
67101;DHT22;54019;61.746;16.106;2022-08-14T08:53:35;23.70;52.70
67101;DHT22;54019;61.746;16.106;2022-08-14T08:56:35;23.60;52.80
67101;DHT22;54019;61.746;16.106;2022-08-14T08:59:25;23.60;52.50
67101;DHT22;54019;61.746;16.106;2022-08-14T09:02:15;23.70;52.70
67101;DHT22;54019;61.746;16.106;2022-08-14T09:05:03;23.70;52.80
67101;DHT22;54019;61.746;16.106;2022-08-14T09:07:50;23.80;52.90
67101;DHT22;54019;61.746;16.106;2022-08-14T09:10:36;23.80;53.10
67101;DHT22;54019;61.746;16.106;2022-08-14T09:13:23;23.80;52.70
67101;DHT22;54019;61.746;16.106;2022-08-14T09:16:09;23.80;52.60
67101;DHT22;54019;61.746;16.106;2022-08-14T09:18:56;23.60;53.40
67101;DHT22;54019;61.746;16.106;2022-08-14T09:21:44;23.50;54.10
67101;DHT22;54019;61.746;16.106;2022-08-14T09:24:30;23.40;53.20
67101;DHT22;54019;61.746;16.106;2022-08-14T09:27:16;23.50;53.10
67101;DHT22;54019;61.746;16.106;2022-08-14T09:30:04;23.60;52.70
67101;DHT22;54019;61.746;16.106;2022-08-14T09:36:11;23.70;52.20
67101;DHT22;54019;61.746;16.106;2022-08-14T09:39:09;23.80;53.20
67101;DHT22;54019;61.746;16.106;2022-08-14T09:42:22;23.80;53.10
67101;DHT22;54019;61.746;16.106;2022-08-14T09:45:17;23.90;52.90
67101;DHT22;54019;61.746;16.106;2022-08-14T09:48:13;23.90;52.90
67101;DHT22;54019;61.746;16.106;2022-08-14T09:51:00;23.90;52.90
67101;DHT22;54019;61.746;16.106;2022-08-14T09:54:01;24.00;52.90
67101;DHT22;54019;61.746;16.106;2022-08-14T09:56:50;24.10;53.80
67101;DHT22;54019;61.746;16.106;2022-08-14T09:59:41;24.10;53.20
67101;DHT22;54019;61.746;16.106;2022-08-14T10:02:29;24.10;53.00
67101;DHT22;54019;61.746;16.106;2022-08-14T10:05:27;24.10;52.80
67101;DHT22;54019;61.746;16.106;2022-08-14T10:08:19;24.20;52.70
67101;DHT22;54019;61.746;16.106;2022-08-14T10:11:12;24.20;52.80
67101;DHT22;54019;61.746;16.106;2022-08-14T10:14:12;24.20;52.80
67101;DHT22;54019;61.746;16.106;2022-08-14T10:16:58;24.20;52.80
67101;DHT22;54019;61.746;16.106;2022-08-14T10:19:47;24.30;52.90
67101;DHT22;54019;61.746;16.106;2022-08-14T10:22:33;24.30;52.90
67101;DHT22;54019;61.746;16.106;2022-08-14T10:25:19;24.40;53.00
67101;DHT22;54019;61.746;16.106;2022-08-14T10:28:05;24.40;52.70
67101;DHT22;54019;61.746;16.106;2022-08-14T10:30:53;24.40;52.70
67101;DHT22;54019;61.746;16.106;2022-08-14T10:33:39;24.40;52.70
67101;DHT22;54019;61.746;16.106;2022-08-14T10:36:26;24.50;52.60
67101;DHT22;54019;61.746;16.106;2022-08-14T10:39:16;24.50;52.60
67101;DHT22;54019;61.746;16.106;2022-08-14T10:42:04;24.50;52.50
67101;DHT22;54019;61.746;16.106;2022-08-14T10:44:51;24.50;52.30
67101;DHT22;54019;61.746;16.106;2022-08-14T10:47:38;24.50;52.30
67101;DHT22;54019;61.746;16.106;2022-08-14T10:50:29;24.50;52.50
67101;DHT22;54019;61.746;16.106;2022-08-14T10:53:25;24.50;52.60
67101;DHT22;54019;61.746;16.106;2022-08-14T10:56:11;24.50;52.60
67101;DHT22;54019;61.746;16.106;2022-08-14T10:59:00;24.50;52.40
67101;DHT22;54019;61.746;16.106;2022-08-14T11:01:46;24.60;52.20
67101;DHT22;54019;61.746;16.106;2022-08-14T11:04:33;24.60;52.10
67101;DHT22;54019;61.746;16.106;2022-08-14T11:07:20;24.70;52.00
67101;DHT22;54019;61.746;16.106;2022-08-14T11:10:07;24.70;51.80
67101;DHT22;54019;61.746;16.106;2022-08-14T11:12:55;24.70;51.60
67101;DHT22;54019;61.746;16.106;2022-08-14T11:15:42;24.70;51.90
67101;DHT22;54019;61.746;16.106;2022-08-14T11:18:29;24.80;51.90
67101;DHT22;54019;61.746;16.106;2022-08-14T11:21:19;24.80;52.10
67101;DHT22;54019;61.746;16.106;2022-08-14T11:24:05;24.90;52.20
67101;DHT22;54019;61.746;16.106;2022-08-14T11:26:53;24.90;52.50
67101;DHT22;54019;61.746;16.106;2022-08-14T11:29:40;24.90;53.20
67101;DHT22;54019;61.746;16.106;2022-08-14T11:32:27;24.90;53.50
67101;DHT22;54019;61.746;16.106;2022-08-14T11:35:14;24.70;53.60
67101;DHT22;54019;61.746;16.106;2022-08-14T11:38:05;24.80;53.00
67101;DHT22;54019;61.746;16.106;2022-08-14T11:40:51;24.80;52.30
67101;DHT22;54019;61.746;16.106;2022-08-14T11:43:38;24.90;51.70
67101;DHT22;54019;61.746;16.106;2022-08-14T11:46:27;24.90;51.30
67101;DHT22;54019;61.746;16.106;2022-08-14T11:49:14;24.90;51.10
67101;DHT22;54019;61.746;16.106;2022-08-14T11:52:10;25.00;50.90
67101;DHT22;54019;61.746;16.106;2022-08-14T11:54:57;25.00;50.60
67101;DHT22;54019;61.746;16.106;2022-08-14T11:57:44;25.00;50.40
67101;DHT22;54019;61.746;16.106;2022-08-14T12:00:31;25.00;51.10
67101;DHT22;54019;61.746;16.106;2022-08-14T12:03:17;25.00;50.30
67101;DHT22;54019;61.746;16.106;2022-08-14T12:06:05;25.00;50.20
67101;DHT22;54019;61.746;16.106;2022-08-14T12:08:51;25.00;50.10
67101;DHT22;54019;61.746;16.106;2022-08-14T12:11:42;25.00;49.90
67101;DHT22;54019;61.746;16.106;2022-08-14T12:14:29;25.00;49.80
67101;DHT22;54019;61.746;16.106;2022-08-14T12:17:15;25.00;49.80
67101;DHT22;54019;61.746;16.106;2022-08-14T12:20:04;25.00;49.70
67101;DHT22;54019;61.746;16.106;2022-08-14T12:22:51;25.00;49.60
67101;DHT22;54019;61.746;16.106;2022-08-14T12:25:37;25.00;49.60
67101;DHT22;54019;61.746;16.106;2022-08-14T12:28:25;25.00;49.60
67101;DHT22;54019;61.746;16.106;2022-08-14T12:31:12;25.10;49.40
67101;DHT22;54019;61.746;16.106;2022-08-14T12:34:00;25.00;49.40
67101;DHT22;54019;61.746;16.106;2022-08-14T12:36:47;25.10;49.40
67101;DHT22;54019;61.746;16.106;2022-08-14T12:39:34;25.00;49.20
67101;DHT22;54019;61.746;16.106;2022-08-14T12:42:20;25.10;49.20
67101;DHT22;54019;61.746;16.106;2022-08-14T12:45:09;25.00;49.20
67101;DHT22;54019;61.746;16.106;2022-08-14T12:47:59;25.10;49.10
67101;DHT22;54019;61.746;16.106;2022-08-14T12:50:46;25.10;49.10
67101;DHT22;54019;61.746;16.106;2022-08-14T12:53:33;25.10;48.90
67101;DHT22;54019;61.746;16.106;2022-08-14T12:56:21;25.10;48.80
67101;DHT22;54019;61.746;16.106;2022-08-14T12:59:08;25.00;48.80
67101;DHT22;54019;61.746;16.106;2022-08-14T13:01:56;25.10;48.70
67101;DHT22;54019;61.746;16.106;2022-08-14T13:04:47;25.10;48.70
67101;DHT22;54019;61.746;16.106;2022-08-14T13:07:34;25.10;48.70
67101;DHT22;54019;61.746;16.106;2022-08-14T13:10:20;25.10;48.60
67101;DHT22;54019;61.746;16.106;2022-08-14T13:13:09;25.10;48.60
67101;DHT22;54019;61.746;16.106;2022-08-14T13:15:55;25.10;48.60
67101;DHT22;54019;61.746;16.106;2022-08-14T13:18:43;25.10;48.50
67101;DHT22;54019;61.746;16.106;2022-08-14T13:21:30;25.10;48.50
67101;DHT22;54019;61.746;16.106;2022-08-14T13:24:18;25.10;48.50
67101;DHT22;54019;61.746;16.106;2022-08-14T13:27:05;25.10;48.40
67101;DHT22;54019;61.746;16.106;2022-08-14T13:29:51;25.10;48.40
67101;DHT22;54019;61.746;16.106;2022-08-14T13:32:41;25.10;48.40
67101;DHT22;54019;61.746;16.106;2022-08-14T13:35:29;25.10;48.40
67101;DHT22;54019;61.746;16.106;2022-08-14T13:38:18;25.00;48.40
67101;DHT22;54019;61.746;16.106;2022-08-14T13:41:04;25.10;48.30
67101;DHT22;54019;61.746;16.106;2022-08-14T13:43:51;25.10;48.30
67101;DHT22;54019;61.746;16.106;2022-08-14T13:46:38;25.10;48.20
67101;DHT22;54019;61.746;16.106;2022-08-14T13:49:24;25.10;48.10
67101;DHT22;54019;61.746;16.106;2022-08-14T13:52:14;25.10;48.10
67101;DHT22;54019;61.746;16.106;2022-08-14T13:55:03;25.10;48.10
67101;DHT22;54019;61.746;16.106;2022-08-14T13:57:50;25.10;48.10
67101;DHT22;54019;61.746;16.106;2022-08-14T14:00:36;25.10;48.00
67101;DHT22;54019;61.746;16.106;2022-08-14T14:03:23;25.10;48.00
67101;DHT22;54019;61.746;16.106;2022-08-14T14:06:10;25.10;48.10
67101;DHT22;54019;61.746;16.106;2022-08-14T14:09:01;25.10;48.80
67101;DHT22;54019;61.746;16.106;2022-08-14T14:11:47;25.00;47.90
67101;DHT22;54019;61.746;16.106;2022-08-14T14:14:34;25.10;48.00
67101;DHT22;54019;61.746;16.106;2022-08-14T14:17:21;25.10;47.90
67101;DHT22;54019;61.746;16.106;2022-08-14T14:20:09;25.10;47.90
67101;DHT22;54019;61.746;16.106;2022-08-14T14:22:55;25.10;47.90
67101;DHT22;54019;61.746;16.106;2022-08-14T14:25:43;25.00;47.80
67101;DHT22;54019;61.746;16.106;2022-08-14T14:28:30;25.10;47.80
67101;DHT22;54019;61.746;16.106;2022-08-14T14:31:19;25.10;47.80
67101;DHT22;54019;61.746;16.106;2022-08-14T14:34:07;25.00;48.10
67101;DHT22;54019;61.746;16.106;2022-08-14T14:36:54;25.10;48.00
67101;DHT22;54019;61.746;16.106;2022-08-14T14:39:41;25.10;47.90
67101;DHT22;54019;61.746;16.106;2022-08-14T14:42:31;25.10;49.40
67101;DHT22;54019;61.746;16.106;2022-08-14T14:45:19;25.30;50.10
67101;DHT22;54019;61.746;16.106;2022-08-14T14:48:07;25.50;50.00
67101;DHT22;54019;61.746;16.106;2022-08-14T14:50:54;25.60;50.70
67101;DHT22;54019;61.746;16.106;2022-08-14T14:53:42;25.70;51.10
67101;DHT22;54019;61.746;16.106;2022-08-14T14:56:29;25.80;52.50
67101;DHT22;54019;61.746;16.106;2022-08-14T14:59:17;25.70;54.30
67101;DHT22;54019;61.746;16.106;2022-08-14T15:02:06;25.70;52.80
67101;DHT22;54019;61.746;16.106;2022-08-14T15:04:52;25.80;52.30
67101;DHT22;54019;61.746;16.106;2022-08-14T15:07:39;25.70;51.80
67101;DHT22;54019;61.746;16.106;2022-08-14T15:10:25;25.60;51.60
67101;DHT22;54019;61.746;16.106;2022-08-14T15:13:12;25.60;51.50
67101;DHT22;54019;61.746;16.106;2022-08-14T15:15:59;25.60;50.70
67101;DHT22;54019;61.746;16.106;2022-08-14T15:18:45;25.60;49.60
67101;DHT22;54019;61.746;16.106;2022-08-14T15:21:32;25.50;52.10
67101;DHT22;54019;61.746;16.106;2022-08-14T15:24:18;25.60;52.10
67101;DHT22;54019;61.746;16.106;2022-08-14T15:27:04;25.60;52.80
67101;DHT22;54019;61.746;16.106;2022-08-14T15:29:50;25.60;52.40
67101;DHT22;54019;61.746;16.106;2022-08-14T15:32:38;25.60;52.50
67101;DHT22;54019;61.746;16.106;2022-08-14T15:35:24;25.50;51.40
67101;DHT22;54019;61.746;16.106;2022-08-14T15:38:10;25.50;51.80
67101;DHT22;54019;61.746;16.106;2022-08-14T15:40:57;25.50;51.00
67101;DHT22;54019;61.746;16.106;2022-08-14T15:43:44;25.50;52.40
67101;DHT22;54019;61.746;16.106;2022-08-14T15:46:30;25.50;52.40
67101;DHT22;54019;61.746;16.106;2022-08-14T15:49:17;25.50;50.90
67101;DHT22;54019;61.746;16.106;2022-08-14T15:52:04;25.60;54.00
67101;DHT22;54019;61.746;16.106;2022-08-14T15:54:50;25.60;54.40
67101;DHT22;54019;61.746;16.106;2022-08-14T15:57:36;25.60;53.80
67101;DHT22;54019;61.746;16.106;2022-08-14T16:00:22;25.60;53.50
67101;DHT22;54019;61.746;16.106;2022-08-14T16:03:09;25.50;52.40
67101;DHT22;54019;61.746;16.106;2022-08-14T16:05:56;25.50;52.50
67101;DHT22;54019;61.746;16.106;2022-08-14T16:08:43;25.50;53.30
67101;DHT22;54019;61.746;16.106;2022-08-14T16:11:30;25.50;53.90
67101;DHT22;54019;61.746;16.106;2022-08-14T16:14:16;25.50;53.60
67101;DHT22;54019;61.746;16.106;2022-08-14T16:17:02;25.50;52.40
67101;DHT22;54019;61.746;16.106;2022-08-14T16:19:48;25.50;52.20
67101;DHT22;54019;61.746;16.106;2022-08-14T16:22:38;25.50;52.60
67101;DHT22;54019;61.746;16.106;2022-08-14T16:25:25;25.40;50.70
67101;DHT22;54019;61.746;16.106;2022-08-14T16:28:12;25.40;50.50
67101;DHT22;54019;61.746;16.106;2022-08-14T16:30:59;25.50;50.60
67101;DHT22;54019;61.746;16.106;2022-08-14T16:33:45;25.50;51.90
67101;DHT22;54019;61.746;16.106;2022-08-14T16:36:33;25.50;53.40
67101;DHT22;54019;61.746;16.106;2022-08-14T16:39:22;25.50;53.30
67101;DHT22;54019;61.746;16.106;2022-08-14T16:42:09;25.60;54.10
67101;DHT22;54019;61.746;16.106;2022-08-14T16:44:55;25.60;54.00
67101;DHT22;54019;61.746;16.106;2022-08-14T16:47:43;25.60;55.20
67101;DHT22;54019;61.746;16.106;2022-08-14T16:50:30;25.70;56.00
67101;DHT22;54019;61.746;16.106;2022-08-14T16:53:16;25.80;56.70
67101;DHT22;54019;61.746;16.106;2022-08-14T16:56:12;25.80;57.00
67101;DHT22;54019;61.746;16.106;2022-08-14T16:59:07;25.90;56.80
67101;DHT22;54019;61.746;16.106;2022-08-14T17:01:55;25.90;56.30
67101;DHT22;54019;61.746;16.106;2022-08-14T17:04:42;25.90;56.90
67101;DHT22;54019;61.746;16.106;2022-08-14T17:07:28;25.90;56.70
67101;DHT22;54019;61.746;16.106;2022-08-14T17:10:14;25.90;56.20
67101;DHT22;54019;61.746;16.106;2022-08-14T17:13:17;25.90;56.90
67101;DHT22;54019;61.746;16.106;2022-08-14T17:16:06;25.90;56.90
67101;DHT22;54019;61.746;16.106;2022-08-14T17:18:53;26.00;57.20
67101;DHT22;54019;61.746;16.106;2022-08-14T17:21:41;25.90;56.80
67101;DHT22;54019;61.746;16.106;2022-08-14T17:24:27;25.90;57.00
67101;DHT22;54019;61.746;16.106;2022-08-14T17:27:15;25.90;56.70
67101;DHT22;54019;61.746;16.106;2022-08-14T17:30:08;25.90;56.60
67101;DHT22;54019;61.746;16.106;2022-08-14T17:32:54;25.90;56.90
67101;DHT22;54019;61.746;16.106;2022-08-14T17:35:40;25.90;56.40
67101;DHT22;54019;61.746;16.106;2022-08-14T17:38:26;25.90;55.40
67101;DHT22;54019;61.746;16.106;2022-08-14T17:41:17;25.90;55.80
67101;DHT22;54019;61.746;16.106;2022-08-14T17:44:15;25.90;56.30
67101;DHT22;54019;61.746;16.106;2022-08-14T17:47:04;25.90;56.10
67101;DHT22;54019;61.746;16.106;2022-08-14T17:49:50;25.90;55.30
67101;DHT22;54019;61.746;16.106;2022-08-14T17:52:38;25.70;53.90
67101;DHT22;54019;61.746;16.106;2022-08-14T17:55:25;25.40;54.80
67101;DHT22;54019;61.746;16.106;2022-08-14T17:58:13;25.40;55.20
67101;DHT22;54019;61.746;16.106;2022-08-14T18:00:59;25.40;55.00
67101;DHT22;54019;61.746;16.106;2022-08-14T18:03:49;25.40;55.20
67101;DHT22;54019;61.746;16.106;2022-08-14T18:06:39;25.40;54.30
67101;DHT22;54019;61.746;16.106;2022-08-14T18:09:25;25.40;54.00
67101;DHT22;54019;61.746;16.106;2022-08-14T18:12:12;25.40;53.80
67101;DHT22;54019;61.746;16.106;2022-08-14T18:15:02;25.40;53.60
67101;DHT22;54019;61.746;16.106;2022-08-14T18:17:50;25.40;53.50
67101;DHT22;54019;61.746;16.106;2022-08-14T18:20:37;25.40;53.20
67101;DHT22;54019;61.746;16.106;2022-08-14T18:23:24;25.40;52.70
67101;DHT22;54019;61.746;16.106;2022-08-14T18:26:11;25.40;52.60
67101;DHT22;54019;61.746;16.106;2022-08-14T18:28:58;25.40;52.40
67101;DHT22;54019;61.746;16.106;2022-08-14T18:31:45;25.40;52.40
67101;DHT22;54019;61.746;16.106;2022-08-14T18:34:35;25.40;52.10
67101;DHT22;54019;61.746;16.106;2022-08-14T18:37:23;25.40;52.10
67101;DHT22;54019;61.746;16.106;2022-08-14T18:40:26;25.40;52.40
67101;DHT22;54019;61.746;16.106;2022-08-14T18:43:12;25.40;52.00
67101;DHT22;54019;61.746;16.106;2022-08-14T18:46:18;25.30;52.40
67101;DHT22;54019;61.746;16.106;2022-08-14T18:49:15;25.30;52.50
67101;DHT22;54019;61.746;16.106;2022-08-14T18:52:12;25.40;52.80
67101;DHT22;54019;61.746;16.106;2022-08-14T18:58:25;25.40;51.80
67101;DHT22;54019;61.746;16.106;2022-08-14T19:01:22;25.30;51.70
67101;DHT22;54019;61.746;16.106;2022-08-14T19:04:34;25.40;51.80
67101;DHT22;54019;61.746;16.106;2022-08-14T19:07:21;25.30;51.70
67101;DHT22;54019;61.746;16.106;2022-08-14T19:10:09;25.30;51.50
67101;DHT22;54019;61.746;16.106;2022-08-14T19:13:00;25.30;51.50
67101;DHT22;54019;61.746;16.106;2022-08-14T19:15:46;25.30;51.60
67101;DHT22;54019;61.746;16.106;2022-08-14T19:18:34;25.30;51.60
67101;DHT22;54019;61.746;16.106;2022-08-14T19:21:25;25.30;51.60
67101;DHT22;54019;61.746;16.106;2022-08-14T19:24:13;25.30;51.50
67101;DHT22;54019;61.746;16.106;2022-08-14T19:27:16;25.30;51.70
67101;DHT22;54019;61.746;16.106;2022-08-14T19:30:20;25.30;51.40
67101;DHT22;54019;61.746;16.106;2022-08-14T19:36:43;25.20;51.10
67101;DHT22;54019;61.746;16.106;2022-08-14T19:39:46;25.20;51.10
67101;DHT22;54019;61.746;16.106;2022-08-14T19:42:36;25.30;51.10
67101;DHT22;54019;61.746;16.106;2022-08-14T19:45:22;25.20;51.60
67101;DHT22;54019;61.746;16.106;2022-08-14T19:48:12;25.20;51.30
67101;DHT22;54019;61.746;16.106;2022-08-14T19:51:00;25.20;51.20
67101;DHT22;54019;61.746;16.106;2022-08-14T19:53:51;25.20;51.00
67101;DHT22;54019;61.746;16.106;2022-08-14T19:56:39;25.20;51.20
67101;DHT22;54019;61.746;16.106;2022-08-14T19:59:27;25.20;51.00
67101;DHT22;54019;61.746;16.106;2022-08-14T20:02:21;25.20;51.20
67101;DHT22;54019;61.746;16.106;2022-08-14T20:05:09;25.20;50.90
67101;DHT22;54019;61.746;16.106;2022-08-14T20:07:58;25.20;51.80
67101;DHT22;54019;61.746;16.106;2022-08-14T20:10:44;25.20;51.50
67101;DHT22;54019;61.746;16.106;2022-08-14T20:13:31;25.20;51.40
67101;DHT22;54019;61.746;16.106;2022-08-14T20:16:18;25.20;51.50
67101;DHT22;54019;61.746;16.106;2022-08-14T20:19:18;25.20;51.00
67101;DHT22;54019;61.746;16.106;2022-08-14T20:22:05;25.20;50.70
67101;DHT22;54019;61.746;16.106;2022-08-14T20:24:51;25.20;50.90
67101;DHT22;54019;61.746;16.106;2022-08-14T20:27:37;25.20;50.80
67101;DHT22;54019;61.746;16.106;2022-08-14T20:30:24;25.20;50.80
67101;DHT22;54019;61.746;16.106;2022-08-14T20:33:14;25.20;50.40
67101;DHT22;54019;61.746;16.106;2022-08-14T20:36:01;25.20;50.90
67101;DHT22;54019;61.746;16.106;2022-08-14T20:38:54;25.20;50.70
67101;DHT22;54019;61.746;16.106;2022-08-14T20:41:44;25.20;50.60
67101;DHT22;54019;61.746;16.106;2022-08-14T20:44:30;25.20;50.90